AXM5324 WMKP-WBKK
Flight info
| Callsign | AXM5324 |
|---|---|
| Flight time | 2h 19m |
| Altitude | 37000 |
| Route | BOGUK DCT ANBIK Y507 VBA G582 VPK M758 VIDIP DCT EGENU |
| Aircraft | A320/M-SDE3FGHIRWY/LB1 |
Departure
| Time | 2026-04-21 12:06 |
|---|---|
| Airport | Penang International Airport (WMKP) |
Arrival
| Time | 2026-04-21 14:26 |
|---|---|
| Airport | Kota Kinabalu International Airport (WBKK) |
| Time | Latitude | Longitude | Altitude | Speed | Heading |
|---|---|---|---|---|---|
| 2026-04-21 11:34 | 5.29252 | 100.26669 | 23 ft | 0 kts | 311° |
| 2026-04-21 11:38 | 5.29252 | 100.26670 | 23 ft | 0 kts | 311° |
| 2026-04-21 11:57 | 5.29250 | 100.26671 | 23 ft | 2 kts | 311° |
| 2026-04-21 11:57 | 5.29233 | 100.26690 | 23 ft | 4 kts | 316° |
| 2026-04-21 11:58 | 5.29212 | 100.26708 | 25 ft | 4 kts | 326° |
| 2026-04-21 11:58 | 5.29189 | 100.26720 | 24 ft | 4 kts | 359° |
| 2026-04-21 11:58 | 5.29174 | 100.26716 | 24 ft | 1 kts | 41° |
| 2026-04-21 11:58 | 5.29172 | 100.26714 | 24 ft | 1 kts | 41° |
| 2026-04-21 12:00 | 5.29174 | 100.26716 | 24 ft | 1 kts | 41° |
| 2026-04-21 12:00 | 5.29187 | 100.26728 | 26 ft | 4 kts | 41° |
| 2026-04-21 12:01 | 5.29213 | 100.26752 | 23 ft | 6 kts | 42° |
| 2026-04-21 12:01 | 5.29251 | 100.26785 | 23 ft | 8 kts | 41° |
| 2026-04-21 12:01 | 5.29251 | 100.26840 | 24 ft | 9 kts | 120° |
| 2026-04-21 12:01 | 5.29207 | 100.26889 | 23 ft | 9 kts | 133° |
| 2026-04-21 12:02 | 5.29158 | 100.26907 | 23 ft | 7 kts | 191° |
| 2026-04-21 12:02 | 5.29061 | 100.26831 | 23 ft | 13 kts | 221° |
| 2026-04-21 12:02 | 5.28986 | 100.26766 | 23 ft | 16 kts | 224° |
| 2026-04-21 12:03 | 5.28900 | 100.26679 | 23 ft | 18 kts | 231° |
| 2026-04-21 12:03 | 5.28814 | 100.26611 | 23 ft | 13 kts | 224° |
| 2026-04-21 12:03 | 5.28728 | 100.26578 | 24 ft | 13 kts | 173° |
| 2026-04-21 12:03 | 5.28664 | 100.26614 | 23 ft | 6 kts | 128° |
| 2026-04-21 12:04 | 5.28659 | 100.26620 | 23 ft | 2 kts | 128° |
| 2026-04-21 12:04 | 5.28640 | 100.26646 | 24 ft | 7 kts | 127° |
| 2026-04-21 12:04 | 5.28623 | 100.26687 | 24 ft | 6 kts | 76° |
| 2026-04-21 12:04 | 5.28644 | 100.26714 | 23 ft | 4 kts | 42° |
| 2026-04-21 12:05 | 5.28649 | 100.26718 | 23 ft | 0 kts | 42° |
| 2026-04-21 12:05 | 5.28722 | 100.26784 | 23 ft | 48 kts | 42° |
| 2026-04-21 12:05 | 5.29154 | 100.27176 | 26 ft | 116 kts | 42° |
| 2026-04-21 12:05 | 5.29894 | 100.27846 | 27 ft | 168 kts | 42° |
| 2026-04-21 12:06 | 5.30837 | 100.28677 | 428 ft | 183 kts | 39° |
| 2026-04-21 12:06 | 5.31815 | 100.29525 | 966 ft | 186 kts | 41° |
| 2026-04-21 12:06 | 5.32733 | 100.30432 | 1545 ft | 185 kts | 60° |
| 2026-04-21 12:06 | 5.32951 | 100.31657 | 2127 ft | 179 kts | 101° |
| 2026-04-21 12:07 | 5.32743 | 100.32886 | 2715 ft | 178 kts | 100° |
| 2026-04-21 12:07 | 5.32556 | 100.34125 | 3149 ft | 188 kts | 98° |
| 2026-04-21 12:07 | 5.32359 | 100.35496 | 3344 ft | 210 kts | 98° |
| 2026-04-21 12:07 | 5.32143 | 100.37029 | 3511 ft | 235 kts | 98° |
| 2026-04-21 12:08 | 5.31907 | 100.38731 | 3801 ft | 258 kts | 97° |
| 2026-04-21 12:08 | 5.31655 | 100.40561 | 4394 ft | 269 kts | 97° |
| 2026-04-21 12:08 | 5.31398 | 100.42431 | 5176 ft | 272 kts | 98° |
| 2026-04-21 12:08 | 5.30784 | 100.44233 | 5919 ft | 277 kts | 120° |
| 2026-04-21 12:09 | 5.29548 | 100.45729 | 6656 ft | 281 kts | 131° |
| 2026-04-21 12:09 | 5.28217 | 100.47162 | 7390 ft | 284 kts | 131° |
| 2026-04-21 12:09 | 5.26866 | 100.48631 | 8114 ft | 287 kts | 131° |
| 2026-04-21 12:09 | 5.25506 | 100.50117 | 8825 ft | 291 kts | 131° |
| 2026-04-21 12:10 | 5.24130 | 100.51627 | 9523 ft | 296 kts | 131° |
| 2026-04-21 12:10 | 5.22718 | 100.53160 | 10174 ft | 300 kts | 131° |
| 2026-04-21 12:10 | 5.21251 | 100.54735 | 10410 ft | 321 kts | 132° |
| 2026-04-21 12:10 | 5.19664 | 100.56434 | 10554 ft | 343 kts | 132° |
| 2026-04-21 12:11 | 5.18008 | 100.58204 | 10974 ft | 353 kts | 132° |
| 2026-04-21 12:11 | 5.16311 | 100.60014 | 11560 ft | 357 kts | 132° |
| 2026-04-21 12:11 | 5.14599 | 100.61838 | 12159 ft | 361 kts | 132° |
| 2026-04-21 12:11 | 5.12868 | 100.63683 | 12759 ft | 364 kts | 133° |
| 2026-04-21 12:12 | 5.11128 | 100.65540 | 13341 ft | 367 kts | 132° |
| 2026-04-21 12:12 | 5.09377 | 100.67420 | 13892 ft | 370 kts | 131° |
| 2026-04-21 12:12 | 5.07879 | 100.69524 | 14377 ft | 373 kts | 121° |
| 2026-04-21 12:12 | 5.06504 | 100.71745 | 14897 ft | 376 kts | 121° |
| 2026-04-21 12:13 | 5.05120 | 100.73985 | 15409 ft | 379 kts | 121° |
| 2026-04-21 12:13 | 5.03726 | 100.76242 | 15898 ft | 382 kts | 121° |
| 2026-04-21 12:13 | 5.02319 | 100.78521 | 16393 ft | 385 kts | 121° |
| 2026-04-21 12:13 | 5.00905 | 100.80813 | 16881 ft | 389 kts | 121° |
| 2026-04-21 12:14 | 4.99477 | 100.83131 | 17370 ft | 392 kts | 121° |
| 2026-04-21 12:14 | 4.98038 | 100.85465 | 17848 ft | 395 kts | 121° |
| 2026-04-21 12:14 | 4.96589 | 100.87813 | 18288 ft | 398 kts | 121° |
| 2026-04-21 12:14 | 4.95125 | 100.90180 | 18717 ft | 400 kts | 121° |
| 2026-04-21 12:15 | 4.93657 | 100.92553 | 19131 ft | 402 kts | 121° |
| 2026-04-21 12:15 | 4.92180 | 100.94940 | 19549 ft | 404 kts | 121° |
| 2026-04-21 12:15 | 4.90715 | 100.97309 | 19956 ft | 406 kts | 121° |
| 2026-04-21 12:15 | 4.89227 | 100.99720 | 20368 ft | 407 kts | 121° |
| 2026-04-21 12:16 | 4.87734 | 101.02138 | 20764 ft | 409 kts | 121° |
| 2026-04-21 12:16 | 4.86230 | 101.04573 | 21171 ft | 411 kts | 121° |
| 2026-04-21 12:16 | 4.84721 | 101.07016 | 21566 ft | 413 kts | 121° |
| 2026-04-21 12:16 | 4.83207 | 101.09470 | 21952 ft | 415 kts | 121° |
| 2026-04-21 12:17 | 4.81683 | 101.11940 | 22329 ft | 417 kts | 120° |
| 2026-04-21 12:17 | 4.80152 | 101.14419 | 22695 ft | 419 kts | 121° |
| 2026-04-21 12:17 | 4.78610 | 101.16910 | 23055 ft | 421 kts | 121° |
| 2026-04-21 12:17 | 4.77059 | 101.19413 | 23415 ft | 423 kts | 121° |
| 2026-04-21 12:18 | 4.75499 | 101.21932 | 23717 ft | 425 kts | 121° |
| 2026-04-21 12:18 | 4.73932 | 101.24461 | 24004 ft | 427 kts | 121° |
| 2026-04-21 12:18 | 4.72366 | 101.26995 | 24286 ft | 429 kts | 121° |
| 2026-04-21 12:18 | 4.70793 | 101.29544 | 24572 ft | 431 kts | 120° |
| 2026-04-21 12:19 | 4.69210 | 101.32108 | 24868 ft | 433 kts | 120° |
| 2026-04-21 12:19 | 4.67618 | 101.34680 | 25149 ft | 435 kts | 121° |
| 2026-04-21 12:19 | 4.66016 | 101.37265 | 25431 ft | 437 kts | 121° |
| 2026-04-21 12:19 | 4.64409 | 101.39862 | 25718 ft | 439 kts | 121° |
| 2026-04-21 12:20 | 4.62793 | 101.42471 | 25982 ft | 441 kts | 121° |
| 2026-04-21 12:20 | 4.61172 | 101.45088 | 26250 ft | 443 kts | 121° |
| 2026-04-21 12:20 | 4.59543 | 101.47722 | 26509 ft | 445 kts | 121° |
| 2026-04-21 12:20 | 4.57909 | 101.50362 | 26768 ft | 447 kts | 121° |
| 2026-04-21 12:21 | 4.56263 | 101.53017 | 27020 ft | 449 kts | 121° |
| 2026-04-21 12:21 | 4.54610 | 101.55683 | 27270 ft | 451 kts | 121° |
| 2026-04-21 12:21 | 4.52950 | 101.58364 | 27508 ft | 453 kts | 120° |
| 2026-04-21 12:21 | 4.51285 | 101.61055 | 27749 ft | 455 kts | 120° |
| 2026-04-21 12:22 | 4.49633 | 101.63722 | 28000 ft | 457 kts | 121° |
| 2026-04-21 12:22 | 4.47954 | 101.66433 | 28234 ft | 459 kts | 120° |
| 2026-04-21 12:22 | 4.46267 | 101.69160 | 28476 ft | 461 kts | 120° |
| 2026-04-21 12:22 | 4.44574 | 101.71894 | 28701 ft | 462 kts | 120° |
| 2026-04-21 12:23 | 4.42873 | 101.74635 | 28827 ft | 464 kts | 120° |
| 2026-04-21 12:23 | 4.39467 | 101.80126 | 28845 ft | 464 kts | 120° |
| 2026-04-21 12:24 | 4.36063 | 101.85620 | 28841 ft | 464 kts | 120° |
| 2026-04-21 12:24 | 4.32652 | 101.91117 | 28830 ft | 464 kts | 120° |
| 2026-04-21 12:25 | 4.29243 | 101.96613 | 28831 ft | 464 kts | 120° |
| 2026-04-21 12:25 | 4.25860 | 102.02073 | 28831 ft | 464 kts | 120° |
| 2026-04-21 12:26 | 4.22461 | 102.07569 | 28827 ft | 464 kts | 120° |
| 2026-04-21 12:26 | 4.19052 | 102.13063 | 28827 ft | 464 kts | 120° |
| 2026-04-21 12:27 | 4.15637 | 102.18551 | 28831 ft | 464 kts | 120° |
| 2026-04-21 12:27 | 4.12223 | 102.24046 | 28834 ft | 464 kts | 120° |
| 2026-04-21 12:28 | 4.08812 | 102.29546 | 28832 ft | 465 kts | 120° |
| 2026-04-21 12:28 | 4.05400 | 102.35049 | 28835 ft | 465 kts | 121° |
| 2026-04-21 12:29 | 4.01979 | 102.40549 | 28836 ft | 465 kts | 121° |
| 2026-04-21 12:29 | 3.98553 | 102.46046 | 28833 ft | 465 kts | 121° |
| 2026-04-21 12:30 | 3.95140 | 102.51544 | 28838 ft | 465 kts | 120° |
| 2026-04-21 12:30 | 3.91748 | 102.57014 | 28838 ft | 465 kts | 121° |
| 2026-04-21 12:31 | 3.88332 | 102.62523 | 28841 ft | 466 kts | 121° |
| 2026-04-21 12:31 | 3.84898 | 102.68033 | 29060 ft | 468 kts | 121° |
| 2026-04-21 12:31 | 3.83174 | 102.70803 | 29294 ft | 470 kts | 121° |
| 2026-04-21 12:32 | 3.81442 | 102.73583 | 29505 ft | 471 kts | 121° |
| 2026-04-21 12:32 | 3.79713 | 102.76362 | 29729 ft | 473 kts | 121° |
| 2026-04-21 12:32 | 3.77962 | 102.79179 | 29922 ft | 475 kts | 121° |
| 2026-04-21 12:32 | 3.76213 | 102.81994 | 30116 ft | 477 kts | 121° |
| 2026-04-21 12:33 | 3.74461 | 102.84812 | 30301 ft | 478 kts | 121° |
| 2026-04-21 12:33 | 3.72700 | 102.87643 | 30486 ft | 479 kts | 121° |
| 2026-04-21 12:33 | 3.70940 | 102.90477 | 30749 ft | 478 kts | 121° |
| 2026-04-21 12:33 | 3.69189 | 102.93298 | 31030 ft | 477 kts | 121° |
| 2026-04-21 12:34 | 3.67439 | 102.96114 | 31304 ft | 476 kts | 121° |
| 2026-04-21 12:34 | 3.65688 | 102.98930 | 31578 ft | 475 kts | 121° |
| 2026-04-21 12:34 | 3.64507 | 103.00827 | 31763 ft | 475 kts | 121° |
| 2026-04-21 12:34 | 3.62762 | 103.03629 | 32039 ft | 474 kts | 121° |
| 2026-04-21 12:35 | 3.60449 | 103.07334 | 32415 ft | 473 kts | 122° |
| 2026-04-21 12:35 | 3.58709 | 103.10121 | 32689 ft | 472 kts | 122° |
| 2026-04-21 12:35 | 3.57558 | 103.11966 | 32862 ft | 472 kts | 122° |
| 2026-04-21 12:35 | 3.55238 | 103.15691 | 33227 ft | 471 kts | 122° |
| 2026-04-21 12:36 | 3.53509 | 103.18472 | 33510 ft | 470 kts | 122° |
| 2026-04-21 12:36 | 3.52364 | 103.20313 | 33703 ft | 470 kts | 122° |
| 2026-04-21 12:36 | 3.50639 | 103.23086 | 33971 ft | 469 kts | 122° |
| 2026-04-21 12:36 | 3.48919 | 103.25852 | 34222 ft | 468 kts | 122° |
| 2026-04-21 12:37 | 3.47199 | 103.28614 | 34474 ft | 467 kts | 122° |
| 2026-04-21 12:37 | 3.45481 | 103.31368 | 34719 ft | 466 kts | 122° |
| 2026-04-21 12:37 | 3.43761 | 103.34120 | 34947 ft | 465 kts | 122° |
| 2026-04-21 12:37 | 3.42050 | 103.36861 | 35174 ft | 464 kts | 122° |
| 2026-04-21 12:38 | 3.40539 | 103.39713 | 35404 ft | 463 kts | 112° |
| 2026-04-21 12:38 | 3.39534 | 103.42769 | 35620 ft | 463 kts | 103° |
| 2026-04-21 12:38 | 3.39060 | 103.45946 | 35828 ft | 462 kts | 93° |
| 2026-04-21 12:38 | 3.39082 | 103.49156 | 36032 ft | 462 kts | 88° |
| 2026-04-21 12:39 | 3.39223 | 103.52367 | 36227 ft | 461 kts | 88° |
| 2026-04-21 12:39 | 3.39358 | 103.55568 | 36423 ft | 461 kts | 88° |
| 2026-04-21 12:39 | 3.39490 | 103.58768 | 36622 ft | 460 kts | 88° |
| 2026-04-21 12:39 | 3.39621 | 103.61963 | 36798 ft | 460 kts | 88° |
| 2026-04-21 12:40 | 3.39751 | 103.65160 | 36849 ft | 459 kts | 88° |
| 2026-04-21 12:40 | 3.40014 | 103.71534 | 36851 ft | 458 kts | 88° |
| 2026-04-21 12:41 | 3.40278 | 103.77907 | 36858 ft | 458 kts | 88° |
| 2026-04-21 12:41 | 3.40543 | 103.84274 | 36860 ft | 458 kts | 88° |
| 2026-04-21 12:42 | 3.40797 | 103.90647 | 36865 ft | 458 kts | 88° |
| 2026-04-21 12:42 | 3.41072 | 103.97017 | 36868 ft | 458 kts | 88° |
| 2026-04-21 12:43 | 3.41396 | 104.03386 | 36873 ft | 458 kts | 87° |
| 2026-04-21 12:43 | 3.41731 | 104.09759 | 36874 ft | 459 kts | 87° |
| 2026-04-21 12:44 | 3.42050 | 104.16087 | 36874 ft | 459 kts | 87° |
| 2026-04-21 12:44 | 3.42367 | 104.22463 | 36881 ft | 459 kts | 87° |
| 2026-04-21 12:45 | 3.42694 | 104.28840 | 36880 ft | 459 kts | 87° |
| 2026-04-21 12:45 | 3.43022 | 104.35215 | 36874 ft | 459 kts | 87° |
| 2026-04-21 12:46 | 3.43344 | 104.41589 | 36875 ft | 459 kts | 87° |
| 2026-04-21 12:46 | 3.43660 | 104.47974 | 36869 ft | 459 kts | 87° |
| 2026-04-21 12:47 | 3.43983 | 104.54353 | 36868 ft | 459 kts | 87° |
| 2026-04-21 12:47 | 3.44315 | 104.60737 | 36868 ft | 459 kts | 87° |
| 2026-04-21 12:48 | 3.44640 | 104.67133 | 36868 ft | 459 kts | 87° |
| 2026-04-21 12:48 | 3.44967 | 104.73525 | 36867 ft | 459 kts | 87° |
| 2026-04-21 12:49 | 3.45294 | 104.79904 | 36868 ft | 459 kts | 87° |
| 2026-04-21 12:49 | 3.45616 | 104.86249 | 36869 ft | 459 kts | 87° |
| 2026-04-21 12:50 | 3.45936 | 104.92637 | 36872 ft | 459 kts | 88° |
| 2026-04-21 12:50 | 3.46257 | 104.99023 | 36875 ft | 460 kts | 87° |
| 2026-04-21 12:51 | 3.46591 | 105.05411 | 36875 ft | 460 kts | 87° |
| 2026-04-21 12:51 | 3.46925 | 105.11804 | 36877 ft | 460 kts | 88° |
| 2026-04-21 12:52 | 3.47243 | 105.18199 | 36877 ft | 460 kts | 88° |
| 2026-04-21 12:52 | 3.47572 | 105.24590 | 36879 ft | 460 kts | 87° |
| 2026-04-21 12:53 | 3.47897 | 105.30989 | 36879 ft | 460 kts | 88° |
| 2026-04-21 12:53 | 3.48214 | 105.37394 | 36879 ft | 461 kts | 88° |
| 2026-04-21 12:54 | 3.48534 | 105.43800 | 36881 ft | 461 kts | 87° |
| 2026-04-21 12:54 | 3.48861 | 105.50211 | 36883 ft | 461 kts | 87° |
| 2026-04-21 12:55 | 3.49190 | 105.56624 | 36887 ft | 462 kts | 87° |
| 2026-04-21 12:55 | 3.49511 | 105.63044 | 36883 ft | 462 kts | 88° |
| 2026-04-21 12:56 | 3.49837 | 105.69468 | 36885 ft | 462 kts | 87° |
| 2026-04-21 12:56 | 3.50163 | 105.75902 | 36880 ft | 463 kts | 88° |
| 2026-04-21 12:57 | 3.50481 | 105.82342 | 36883 ft | 463 kts | 88° |
| 2026-04-21 12:57 | 3.50807 | 105.88785 | 36884 ft | 463 kts | 87° |
| 2026-04-21 12:58 | 3.51137 | 105.95223 | 36886 ft | 463 kts | 87° |
| 2026-04-21 12:58 | 3.51468 | 106.01666 | 36886 ft | 463 kts | 87° |
| 2026-04-21 12:59 | 3.51800 | 106.08106 | 36882 ft | 463 kts | 87° |
| 2026-04-21 12:59 | 3.52128 | 106.14548 | 36881 ft | 464 kts | 87° |
| 2026-04-21 13:00 | 3.52451 | 106.20997 | 36883 ft | 464 kts | 88° |
| 2026-04-21 13:00 | 3.52775 | 106.27446 | 36884 ft | 464 kts | 88° |
| 2026-04-21 13:01 | 3.53106 | 106.33896 | 36885 ft | 464 kts | 87° |
| 2026-04-21 13:01 | 3.53440 | 106.40341 | 36887 ft | 463 kts | 87° |
| 2026-04-21 13:02 | 3.53775 | 106.46782 | 36887 ft | 464 kts | 87° |
| 2026-04-21 13:02 | 3.54268 | 106.56449 | 36889 ft | 464 kts | 88° |
| 2026-04-21 13:03 | 3.54601 | 106.62903 | 36889 ft | 464 kts | 88° |
| 2026-04-21 13:03 | 3.54938 | 106.69355 | 36892 ft | 464 kts | 88° |
| 2026-04-21 13:04 | 3.55273 | 106.75815 | 36888 ft | 464 kts | 88° |
| 2026-04-21 13:04 | 3.55609 | 106.82274 | 36890 ft | 464 kts | 88° |
| 2026-04-21 13:05 | 3.55940 | 106.88693 | 36899 ft | 464 kts | 88° |
| 2026-04-21 13:05 | 3.56786 | 106.95125 | 36891 ft | 464 kts | 75° |
| 2026-04-21 13:06 | 3.58448 | 107.01372 | 36890 ft | 465 kts | 76° |
| 2026-04-21 13:06 | 3.60091 | 107.07629 | 36889 ft | 465 kts | 76° |
| 2026-04-21 13:07 | 3.61728 | 107.13888 | 36888 ft | 464 kts | 76° |
| 2026-04-21 13:07 | 3.63357 | 107.20108 | 36889 ft | 465 kts | 76° |
| 2026-04-21 13:08 | 3.65000 | 107.26365 | 36893 ft | 465 kts | 76° |
| 2026-04-21 13:08 | 3.66642 | 107.32628 | 36894 ft | 465 kts | 76° |
| 2026-04-21 13:09 | 3.68278 | 107.38893 | 36895 ft | 465 kts | 76° |
| 2026-04-21 13:09 | 3.69921 | 107.45161 | 36902 ft | 465 kts | 76° |
| 2026-04-21 13:10 | 3.71565 | 107.51428 | 36902 ft | 465 kts | 76° |
| 2026-04-21 13:10 | 3.73203 | 107.57691 | 36906 ft | 465 kts | 76° |
| 2026-04-21 13:11 | 3.74840 | 107.63952 | 36905 ft | 465 kts | 76° |
| 2026-04-21 13:11 | 3.76473 | 107.70216 | 36902 ft | 465 kts | 76° |
| 2026-04-21 13:12 | 3.78111 | 107.76466 | 36905 ft | 464 kts | 76° |
| 2026-04-21 13:12 | 3.79748 | 107.82716 | 36904 ft | 464 kts | 76° |
| 2026-04-21 13:13 | 3.81379 | 107.88959 | 36904 ft | 463 kts | 76° |
| 2026-04-21 13:13 | 3.82999 | 107.95153 | 36900 ft | 463 kts | 76° |
| 2026-04-21 13:14 | 3.84639 | 108.01424 | 36898 ft | 462 kts | 76° |
| 2026-04-21 13:14 | 3.86262 | 108.07653 | 36900 ft | 462 kts | 76° |
| 2026-04-21 13:15 | 3.87882 | 108.13885 | 36895 ft | 462 kts | 76° |
| 2026-04-21 13:15 | 3.89500 | 108.20080 | 36899 ft | 462 kts | 76° |
| 2026-04-21 13:16 | 3.91127 | 108.26307 | 36901 ft | 462 kts | 76° |
| 2026-04-21 13:16 | 3.92757 | 108.32539 | 36897 ft | 462 kts | 76° |
| 2026-04-21 13:17 | 3.94102 | 108.37723 | 36900 ft | 462 kts | 76° |
| 2026-04-21 13:17 | 3.95992 | 108.45011 | 36895 ft | 462 kts | 76° |
| 2026-04-21 13:18 | 3.97343 | 108.50186 | 36892 ft | 462 kts | 76° |
| 2026-04-21 13:18 | 3.98968 | 108.56415 | 36890 ft | 462 kts | 76° |
| 2026-04-21 13:19 | 4.00591 | 108.62642 | 36892 ft | 462 kts | 76° |
| 2026-04-21 13:19 | 4.02214 | 108.68871 | 36892 ft | 463 kts | 76° |
| 2026-04-21 13:20 | 4.03839 | 108.75112 | 36893 ft | 463 kts | 76° |
| 2026-04-21 13:20 | 4.05476 | 108.81349 | 36893 ft | 463 kts | 76° |
| 2026-04-21 13:21 | 4.07113 | 108.87591 | 36891 ft | 463 kts | 76° |
| 2026-04-21 13:21 | 4.08751 | 108.93835 | 36898 ft | 463 kts | 76° |
| 2026-04-21 13:22 | 4.10387 | 109.00071 | 36899 ft | 463 kts | 76° |
| 2026-04-21 13:22 | 4.12021 | 109.06312 | 36900 ft | 463 kts | 76° |
| 2026-04-21 13:23 | 4.13641 | 109.12512 | 36905 ft | 463 kts | 76° |
| 2026-04-21 13:23 | 4.15276 | 109.18756 | 36906 ft | 463 kts | 76° |
| 2026-04-21 13:24 | 4.16914 | 109.24995 | 36907 ft | 463 kts | 76° |
| 2026-04-21 13:24 | 4.18547 | 109.31240 | 36905 ft | 464 kts | 76° |
| 2026-04-21 13:25 | 4.20175 | 109.37494 | 36909 ft | 464 kts | 76° |
| 2026-04-21 13:25 | 4.21807 | 109.43745 | 36912 ft | 464 kts | 76° |
| 2026-04-21 13:26 | 4.23444 | 109.50002 | 36910 ft | 464 kts | 76° |
| 2026-04-21 13:26 | 4.25077 | 109.56258 | 36910 ft | 464 kts | 76° |
| 2026-04-21 13:27 | 4.26705 | 109.62522 | 36912 ft | 464 kts | 76° |
| 2026-04-21 13:27 | 4.28308 | 109.68778 | 36907 ft | 464 kts | 76° |
| 2026-04-21 13:28 | 4.29909 | 109.75042 | 36913 ft | 464 kts | 76° |
| 2026-04-21 13:28 | 4.31508 | 109.81307 | 36909 ft | 464 kts | 76° |
| 2026-04-21 13:29 | 4.33117 | 109.87570 | 36907 ft | 464 kts | 76° |
| 2026-04-21 13:29 | 4.34731 | 109.93841 | 36908 ft | 464 kts | 76° |
| 2026-04-21 13:30 | 4.36336 | 110.00107 | 36907 ft | 465 kts | 76° |
| 2026-04-21 13:30 | 4.37939 | 110.06383 | 36909 ft | 465 kts | 76° |
| 2026-04-21 13:31 | 4.39546 | 110.12658 | 36904 ft | 465 kts | 76° |
| 2026-04-21 13:31 | 4.41162 | 110.18929 | 36903 ft | 465 kts | 76° |
| 2026-04-21 13:32 | 4.42769 | 110.25196 | 36904 ft | 464 kts | 76° |
| 2026-04-21 13:32 | 4.44375 | 110.31466 | 36899 ft | 464 kts | 76° |
| 2026-04-21 13:33 | 4.45976 | 110.37739 | 36900 ft | 465 kts | 76° |
| 2026-04-21 13:33 | 4.47572 | 110.43975 | 36900 ft | 465 kts | 76° |
| 2026-04-21 13:34 | 4.49172 | 110.50253 | 36900 ft | 465 kts | 76° |
| 2026-04-21 13:34 | 4.50775 | 110.56535 | 36905 ft | 466 kts | 76° |
| 2026-04-21 13:35 | 4.52382 | 110.62820 | 36904 ft | 466 kts | 76° |
| 2026-04-21 13:35 | 4.53993 | 110.69107 | 36903 ft | 466 kts | 76° |
| 2026-04-21 13:36 | 4.55602 | 110.75397 | 36906 ft | 466 kts | 76° |
| 2026-04-21 13:36 | 4.57207 | 110.81688 | 36909 ft | 466 kts | 76° |
| 2026-04-21 13:37 | 4.58809 | 110.87987 | 36909 ft | 466 kts | 76° |
| 2026-04-21 13:37 | 4.60410 | 110.94292 | 36907 ft | 467 kts | 76° |
| 2026-04-21 13:38 | 4.62020 | 111.00597 | 36911 ft | 467 kts | 76° |
| 2026-04-21 13:38 | 4.63632 | 111.06902 | 36911 ft | 467 kts | 76° |
| 2026-04-21 13:39 | 4.65238 | 111.13210 | 36907 ft | 467 kts | 76° |
| 2026-04-21 13:39 | 4.66841 | 111.19517 | 36909 ft | 466 kts | 76° |
| 2026-04-21 13:40 | 4.68447 | 111.25820 | 36906 ft | 466 kts | 76° |
| 2026-04-21 13:40 | 4.70050 | 111.32117 | 36906 ft | 466 kts | 76° |
| 2026-04-21 13:41 | 4.71642 | 111.38391 | 36902 ft | 466 kts | 76° |
| 2026-04-21 13:41 | 4.73242 | 111.44691 | 36905 ft | 466 kts | 76° |
| 2026-04-21 13:42 | 4.74855 | 111.51004 | 36900 ft | 466 kts | 76° |
| 2026-04-21 13:42 | 4.76460 | 111.57317 | 36904 ft | 467 kts | 76° |
| 2026-04-21 13:43 | 4.78047 | 111.63594 | 36904 ft | 467 kts | 76° |
| 2026-04-21 13:43 | 4.79647 | 111.69908 | 36904 ft | 467 kts | 76° |
| 2026-04-21 13:44 | 4.81251 | 111.76225 | 36907 ft | 467 kts | 76° |
| 2026-04-21 13:44 | 4.82852 | 111.82544 | 36905 ft | 468 kts | 76° |
| 2026-04-21 13:45 | 4.84460 | 111.88865 | 36903 ft | 468 kts | 76° |
| 2026-04-21 13:45 | 4.86106 | 111.95173 | 36908 ft | 468 kts | 76° |
| 2026-04-21 13:46 | 4.87760 | 112.01483 | 36903 ft | 468 kts | 76° |
| 2026-04-21 13:46 | 4.89399 | 112.07796 | 36906 ft | 468 kts | 76° |
| 2026-04-21 13:47 | 4.91027 | 112.14106 | 36904 ft | 467 kts | 76° |
| 2026-04-21 13:47 | 4.92656 | 112.20423 | 36904 ft | 467 kts | 76° |
| 2026-04-21 13:48 | 4.94289 | 112.26729 | 36898 ft | 467 kts | 76° |
| 2026-04-21 13:48 | 4.95916 | 112.32990 | 36899 ft | 467 kts | 76° |
| 2026-04-21 13:49 | 4.97546 | 112.39296 | 36897 ft | 467 kts | 76° |
| 2026-04-21 13:49 | 4.99179 | 112.45594 | 36896 ft | 466 kts | 76° |
| 2026-04-21 13:50 | 5.00804 | 112.51893 | 36895 ft | 466 kts | 76° |
| 2026-04-21 13:50 | 5.02427 | 112.58192 | 36889 ft | 466 kts | 76° |
| 2026-04-21 13:51 | 5.04056 | 112.64485 | 36891 ft | 466 kts | 76° |
| 2026-04-21 13:51 | 5.05685 | 112.70782 | 36890 ft | 466 kts | 76° |
| 2026-04-21 13:52 | 5.07307 | 112.77087 | 36888 ft | 466 kts | 77° |
| 2026-04-21 13:52 | 5.08931 | 112.83384 | 36889 ft | 467 kts | 76° |
| 2026-04-21 13:53 | 5.10559 | 112.89686 | 36889 ft | 467 kts | 77° |
| 2026-04-21 13:53 | 5.12189 | 112.95987 | 36894 ft | 466 kts | 77° |
| 2026-04-21 13:54 | 5.13808 | 113.02284 | 36895 ft | 466 kts | 77° |
| 2026-04-21 13:54 | 5.15421 | 113.08584 | 36895 ft | 466 kts | 77° |
| 2026-04-21 13:55 | 5.17024 | 113.14840 | 36893 ft | 466 kts | 77° |
| 2026-04-21 13:55 | 5.18654 | 113.21170 | 36895 ft | 466 kts | 77° |
| 2026-04-21 13:56 | 5.20273 | 113.27418 | 36890 ft | 466 kts | 77° |
| 2026-04-21 13:56 | 5.21908 | 113.33773 | 36893 ft | 466 kts | 77° |
| 2026-04-21 13:57 | 5.23527 | 113.40065 | 36892 ft | 466 kts | 77° |
| 2026-04-21 13:57 | 5.25132 | 113.46319 | 36887 ft | 466 kts | 77° |
| 2026-04-21 13:58 | 5.26748 | 113.52612 | 36890 ft | 466 kts | 77° |
| 2026-04-21 13:58 | 5.28365 | 113.58910 | 36885 ft | 466 kts | 77° |
| 2026-04-21 13:59 | 5.29975 | 113.65207 | 36881 ft | 466 kts | 76° |
| 2026-04-21 13:59 | 5.31587 | 113.71506 | 36879 ft | 466 kts | 76° |
| 2026-04-21 14:00 | 5.33206 | 113.77810 | 36878 ft | 466 kts | 77° |
| 2026-04-21 14:00 | 5.34547 | 113.83046 | 36878 ft | 466 kts | 76° |
| 2026-04-21 14:01 | 5.36161 | 113.89351 | 36879 ft | 467 kts | 76° |
| 2026-04-21 14:01 | 5.37784 | 113.95696 | 36880 ft | 467 kts | 76° |
| 2026-04-21 14:02 | 5.39400 | 114.01970 | 36878 ft | 467 kts | 76° |
| 2026-04-21 14:03 | 5.41834 | 114.11446 | 36875 ft | 467 kts | 76° |
| 2026-04-21 14:03 | 5.43441 | 114.17767 | 36875 ft | 468 kts | 77° |
| 2026-04-21 14:04 | 5.45044 | 114.24093 | 36729 ft | 469 kts | 76° |
| 2026-04-21 14:04 | 5.45850 | 114.27269 | 36470 ft | 468 kts | 76° |
| 2026-04-21 14:04 | 5.46656 | 114.30439 | 35932 ft | 471 kts | 76° |
| 2026-04-21 14:04 | 5.47471 | 114.33645 | 35039 ft | 477 kts | 76° |
| 2026-04-21 14:05 | 5.48295 | 114.36889 | 34143 ft | 483 kts | 76° |
| 2026-04-21 14:05 | 5.49128 | 114.40178 | 33180 ft | 488 kts | 77° |
| 2026-04-21 14:05 | 5.49959 | 114.43459 | 32653 ft | 482 kts | 76° |
| 2026-04-21 14:05 | 5.50784 | 114.46711 | 32006 ft | 480 kts | 77° |
| 2026-04-21 14:06 | 5.51602 | 114.49945 | 31382 ft | 476 kts | 77° |
| 2026-04-21 14:06 | 5.52419 | 114.53161 | 30756 ft | 473 kts | 77° |
| 2026-04-21 14:06 | 5.53231 | 114.56352 | 30144 ft | 470 kts | 77° |
| 2026-04-21 14:06 | 5.54038 | 114.59523 | 29464 ft | 466 kts | 77° |
| 2026-04-21 14:07 | 5.54833 | 114.62655 | 28914 ft | 460 kts | 77° |
| 2026-04-21 14:07 | 5.55618 | 114.65755 | 28299 ft | 455 kts | 77° |
| 2026-04-21 14:07 | 5.56383 | 114.68781 | 27721 ft | 451 kts | 77° |
| 2026-04-21 14:07 | 5.57150 | 114.71820 | 27156 ft | 446 kts | 77° |
| 2026-04-21 14:08 | 5.57913 | 114.74827 | 26602 ft | 442 kts | 77° |
| 2026-04-21 14:08 | 5.58668 | 114.77802 | 26059 ft | 437 kts | 77° |
| 2026-04-21 14:08 | 5.59416 | 114.80750 | 25533 ft | 433 kts | 77° |
| 2026-04-21 14:08 | 5.60153 | 114.83661 | 25027 ft | 428 kts | 77° |
| 2026-04-21 14:09 | 5.60882 | 114.86549 | 24526 ft | 424 kts | 77° |
| 2026-04-21 14:09 | 5.61603 | 114.89404 | 24029 ft | 419 kts | 77° |
| 2026-04-21 14:09 | 5.62318 | 114.92228 | 23537 ft | 416 kts | 77° |
| 2026-04-21 14:09 | 5.63028 | 114.95029 | 22979 ft | 412 kts | 77° |
| 2026-04-21 14:10 | 5.63731 | 114.97800 | 22490 ft | 407 kts | 78° |
| 2026-04-21 14:10 | 5.64414 | 115.00499 | 22007 ft | 403 kts | 77° |
| 2026-04-21 14:10 | 5.65099 | 115.03215 | 21519 ft | 399 kts | 77° |
| 2026-04-21 14:10 | 5.65774 | 115.05904 | 21031 ft | 396 kts | 78° |
| 2026-04-21 14:11 | 5.66445 | 115.08573 | 20533 ft | 393 kts | 77° |
| 2026-04-21 14:11 | 5.67113 | 115.11229 | 20032 ft | 391 kts | 77° |
| 2026-04-21 14:11 | 5.67782 | 115.13873 | 19531 ft | 390 kts | 77° |
| 2026-04-21 14:11 | 5.68449 | 115.16510 | 19038 ft | 389 kts | 77° |
| 2026-04-21 14:12 | 5.69151 | 115.19131 | 18539 ft | 388 kts | 75° |
| 2026-04-21 14:12 | 5.69910 | 115.21727 | 18026 ft | 388 kts | 74° |
| 2026-04-21 14:12 | 5.70640 | 115.24116 | 17537 ft | 386 kts | 73° |
| 2026-04-21 14:12 | 5.71438 | 115.26686 | 17054 ft | 384 kts | 74° |
| 2026-04-21 14:13 | 5.72228 | 115.29237 | 16576 ft | 381 kts | 74° |
| 2026-04-21 14:13 | 5.73002 | 115.31774 | 16102 ft | 379 kts | 74° |
| 2026-04-21 14:13 | 5.73762 | 115.34296 | 15650 ft | 377 kts | 74° |
| 2026-04-21 14:13 | 5.74512 | 115.36809 | 15169 ft | 375 kts | 74° |
| 2026-04-21 14:14 | 5.75011 | 115.39363 | 14705 ft | 372 kts | 86° |
| 2026-04-21 14:14 | 5.75061 | 115.41946 | 14236 ft | 370 kts | 90° |
| 2026-04-21 14:14 | 5.75087 | 115.44528 | 13828 ft | 367 kts | 89° |
| 2026-04-21 14:14 | 5.75125 | 115.47074 | 13384 ft | 364 kts | 89° |
| 2026-04-21 14:15 | 5.75171 | 115.49609 | 12903 ft | 361 kts | 89° |
| 2026-04-21 14:15 | 5.75220 | 115.52085 | 12406 ft | 356 kts | 89° |
| 2026-04-21 14:15 | 5.75267 | 115.54550 | 11572 ft | 351 kts | 89° |
| 2026-04-21 14:15 | 5.75310 | 115.57019 | 10796 ft | 346 kts | 89° |
| 2026-04-21 14:16 | 5.75348 | 115.59419 | 10388 ft | 342 kts | 89° |
| 2026-04-21 14:16 | 5.75382 | 115.61785 | 10134 ft | 334 kts | 89° |
| 2026-04-21 14:16 | 5.75416 | 115.64075 | 10013 ft | 322 kts | 89° |
| 2026-04-21 14:16 | 5.75452 | 115.66283 | 9900 ft | 311 kts | 89° |
| 2026-04-21 14:17 | 5.75488 | 115.68422 | 9675 ft | 303 kts | 89° |
| 2026-04-21 14:17 | 5.75522 | 115.70490 | 9061 ft | 299 kts | 89° |
| 2026-04-21 14:17 | 5.75556 | 115.72573 | 8437 ft | 295 kts | 89° |
| 2026-04-21 14:17 | 5.75588 | 115.74618 | 7840 ft | 291 kts | 89° |
| 2026-04-21 14:18 | 5.75621 | 115.76639 | 7365 ft | 287 kts | 89° |
| 2026-04-21 14:18 | 5.75652 | 115.78625 | 6775 ft | 282 kts | 89° |
| 2026-04-21 14:18 | 5.75682 | 115.80584 | 6180 ft | 279 kts | 89° |
| 2026-04-21 14:18 | 5.75711 | 115.82519 | 5551 ft | 275 kts | 89° |
| 2026-04-21 14:19 | 5.75665 | 115.84416 | 5028 ft | 268 kts | 98° |
| 2026-04-21 14:19 | 5.75184 | 115.86171 | 4808 ft | 253 kts | 112° |
| 2026-04-21 14:19 | 5.74532 | 115.87761 | 4751 ft | 239 kts | 111° |
| 2026-04-21 14:19 | 5.73926 | 115.89272 | 4658 ft | 229 kts | 111° |
| 2026-04-21 14:20 | 5.73340 | 115.90748 | 4565 ft | 226 kts | 111° |
| 2026-04-21 14:20 | 5.72765 | 115.92195 | 4454 ft | 218 kts | 112° |
| 2026-04-21 14:20 | 5.72213 | 115.93586 | 4363 ft | 210 kts | 111° |
| 2026-04-21 14:20 | 5.71990 | 115.94991 | 4188 ft | 206 kts | 79° |
| 2026-04-21 14:21 | 5.72734 | 115.96206 | 3844 ft | 212 kts | 34° |
| 2026-04-21 14:21 | 5.74076 | 115.96835 | 3583 ft | 213 kts | 23° |
| 2026-04-21 14:21 | 5.75427 | 115.97399 | 3336 ft | 208 kts | 24° |
| 2026-04-21 14:21 | 5.76746 | 115.97954 | 3051 ft | 203 kts | 24° |
| 2026-04-21 14:22 | 5.78028 | 115.98495 | 2785 ft | 198 kts | 24° |
| 2026-04-21 14:22 | 5.79288 | 115.99027 | 2542 ft | 194 kts | 23° |
| 2026-04-21 14:22 | 5.80520 | 115.99546 | 2296 ft | 190 kts | 24° |
| 2026-04-21 14:22 | 5.81727 | 116.00056 | 2050 ft | 187 kts | 24° |
| 2026-04-21 14:23 | 5.82895 | 116.00549 | 1839 ft | 176 kts | 24° |
| 2026-04-21 14:23 | 5.83991 | 116.01011 | 1640 ft | 166 kts | 24° |
| 2026-04-21 14:23 | 5.85025 | 116.01447 | 1441 ft | 158 kts | 23° |
| 2026-04-21 14:23 | 5.86021 | 116.01868 | 1266 ft | 154 kts | 23° |
| 2026-04-21 14:24 | 5.87002 | 116.02282 | 1075 ft | 152 kts | 23° |
| 2026-04-21 14:24 | 5.87964 | 116.02689 | 878 ft | 151 kts | 23° |
| 2026-04-21 14:24 | 5.88947 | 116.03103 | 670 ft | 151 kts | 24° |
| 2026-04-21 14:24 | 5.89902 | 116.03506 | 474 ft | 151 kts | 24° |
| 2026-04-21 14:25 | 5.90870 | 116.03915 | 276 ft | 151 kts | 24° |
| 2026-04-21 14:25 | 5.91840 | 116.04314 | 86 ft | 151 kts | 24° |
| 2026-04-21 14:25 | 5.92761 | 116.04715 | 30 ft | 132 kts | 23° |
| 2026-04-21 14:25 | 5.93458 | 116.05007 | 29 ft | 83 kts | 23° |
| 2026-04-21 14:26 | 5.93797 | 116.05149 | 29 ft | 36 kts | 23° |
| 2026-04-21 14:26 | 5.93966 | 116.05264 | 29 ft | 22 kts | 46° |
| 2026-04-21 14:26 | 5.94037 | 116.05351 | 29 ft | 12 kts | 54° |
| 2026-04-21 14:26 | 5.94070 | 116.05415 | 29 ft | 7 kts | 102° |
| 2026-04-21 14:27 | 5.94032 | 116.05431 | 29 ft | 6 kts | 186° |
| 2026-04-21 14:27 | 5.93994 | 116.05417 | 29 ft | 8 kts | 202° |
| 2026-04-21 14:27 | 5.93931 | 116.05390 | 29 ft | 12 kts | 202° |
| 2026-04-21 14:27 | 5.93851 | 116.05358 | 29 ft | 12 kts | 201° |
| 2026-04-21 14:28 | 5.93776 | 116.05326 | 29 ft | 11 kts | 203° |
| 2026-04-21 14:28 | 5.93706 | 116.05296 | 29 ft | 11 kts | 203° |
| 2026-04-21 14:28 | 5.93614 | 116.05255 | 29 ft | 18 kts | 201° |
| 2026-04-21 14:28 | 5.93481 | 116.05199 | 29 ft | 22 kts | 204° |
| 2026-04-21 14:29 | 5.93336 | 116.05138 | 29 ft | 23 kts | 202° |
| 2026-04-21 14:29 | 5.93184 | 116.05075 | 29 ft | 24 kts | 202° |
| 2026-04-21 14:29 | 5.93026 | 116.05010 | 29 ft | 25 kts | 204° |
| 2026-04-21 14:29 | 5.92881 | 116.04947 | 29 ft | 22 kts | 203° |
| 2026-04-21 14:30 | 5.92751 | 116.04893 | 29 ft | 17 kts | 203° |
| 2026-04-21 14:30 | 5.92671 | 116.04887 | 29 ft | 10 kts | 131° |
| 2026-04-21 14:30 | 5.92637 | 116.04949 | 29 ft | 10 kts | 138° |
| 2026-04-21 14:30 | 5.92571 | 116.04946 | 29 ft | 10 kts | 207° |
| 2026-04-21 14:31 | 5.92515 | 116.04921 | 29 ft | 7 kts | 204° |
| 2026-04-21 14:31 | 5.92482 | 116.04929 | 29 ft | 5 kts | 114° |
| 2026-04-21 14:31 | 5.92470 | 116.04961 | 29 ft | 3 kts | 112° |
| 2026-04-21 14:31 | 5.92464 | 116.04976 | 29 ft | 1 kts | 110° |
| 2026-04-21 14:32 | 5.92461 | 116.04984 | 29 ft | 0 kts | 111° |
| 2026-04-21 14:32 | 5.92460 | 116.04985 | 29 ft | 0 kts | 113° |